createdAt,value
2024-02-02T00:00:45.387Z,100459.75
2024-02-02T00:03:12.328Z,100465.53
2024-02-02T00:05:39.129Z,100462.94
2024-02-02T00:08:08.167Z,100456.13
2024-02-02T00:10:35.186Z,100458.28
2024-02-02T00:13:01.890Z,100457.91
2024-02-02T00:15:28.746Z,100462.31
2024-02-02T00:17:55.539Z,100467.84
2024-02-02T00:20:22.132Z,100454.91
2024-02-02T00:22:49.030Z,100458.09
2024-02-02T00:25:15.765Z,100455.38
2024-02-02T00:27:42.965Z,100456.72
2024-02-02T00:30:09.992Z,100462.09
2024-02-02T00:32:36.515Z,100461.81
2024-02-02T00:35:03.292Z,100465.38
2024-02-02T00:37:29.919Z,100468.38
2024-02-02T00:39:56.354Z,100462.66
2024-02-02T00:42:22.891Z,100463.59
2024-02-02T00:44:49.542Z,100456.88
2024-02-02T00:47:16.418Z,100459.19
2024-02-02T00:49:43.324Z,100442.47
2024-02-02T00:52:09.889Z,100444.31
2024-02-02T00:54:36.767Z,100454.09
2024-02-02T00:57:03.925Z,100447.78
2024-02-02T00:59:30.493Z,100455.47
2024-02-02T01:01:57.006Z,100458.00
2024-02-02T01:04:23.853Z,100459.91
2024-02-02T01:06:50.795Z,100452.50
2024-02-02T01:09:17.629Z,100444.94
2024-02-02T01:11:44.657Z,100439.97
2024-02-02T01:14:11.152Z,100449.59
2024-02-02T01:16:37.629Z,100433.34
2024-02-02T01:19:04.389Z,100444.50
2024-02-02T01:21:31.823Z,100452.34
2024-02-02T01:23:58.507Z,100434.88
2024-02-02T01:26:25.205Z,100443.41
2024-02-02T01:28:52.053Z,100445.19
2024-02-02T01:31:18.657Z,100446.59
2024-02-02T01:33:45.205Z,100426.34
2024-02-02T01:36:12.325Z,100435.19
2024-02-02T01:38:39.435Z,100431.59
2024-02-02T01:41:06.099Z,100424.16
2024-02-02T01:43:33.383Z,100430.91
2024-02-02T01:45:59.997Z,100431.47
2024-02-02T01:48:27.330Z,100425.28
2024-02-02T01:50:54.931Z,100428.56
2024-02-02T01:53:21.823Z,100428.84
2024-02-02T01:55:48.408Z,100410.97
2024-02-02T01:58:15.201Z,100421.28
2024-02-02T02:00:41.791Z,100408.63
2024-02-02T02:03:08.812Z,100412.47
2024-02-02T02:05:37.074Z,100411.78
2024-02-02T02:08:04.449Z,100399.66
2024-02-02T02:10:30.944Z,100408.91
2024-02-02T02:12:57.808Z,100405.59
2024-02-02T02:15:25.703Z,100419.91
2024-02-02T02:17:55.404Z,100423.63
2024-02-02T02:20:24.128Z,100417.31
2024-02-02T02:22:50.877Z,100413.31
2024-02-02T02:25:17.418Z,100409.56
2024-02-02T02:27:45.136Z,100401.84
2024-02-02T02:30:12.771Z,100403.94
2024-02-02T02:32:39.467Z,100397.47
2024-02-02T02:35:06.428Z,100394.72
2024-02-02T02:37:33.013Z,100389.78
2024-02-02T02:39:59.868Z,100401.03
2024-02-02T02:42:26.756Z,100406.13
2024-02-02T02:44:53.654Z,100398.84
2024-02-02T02:47:20.529Z,100399.66
2024-02-02T02:49:47.232Z,100391.13
2024-02-02T02:52:14.123Z,100399.53
2024-02-02T02:54:40.583Z,100397.31
2024-02-02T02:57:07.432Z,100394.56
2024-02-02T02:59:36.504Z,100383.69
2024-02-02T03:02:04.106Z,100385.22
2024-02-02T03:04:30.909Z,100375.59
2024-02-02T03:06:57.791Z,100382.19
2024-02-02T03:09:24.822Z,100398.28
2024-02-02T03:11:51.548Z,100396.06
2024-02-02T03:14:18.492Z,100389.22
2024-02-02T03:16:45.137Z,100398.16
2024-02-02T03:19:11.751Z,100375.59
2024-02-02T03:21:38.846Z,100388.50
2024-02-02T03:24:06.589Z,100376.13
2024-02-02T03:26:33.441Z,100381.22
2024-02-02T03:29:00.018Z,100379.44
2024-02-02T03:31:26.499Z,100392.47
2024-02-02T03:33:53.145Z,100397.56
2024-02-02T03:36:19.787Z,100389.31
2024-02-02T03:38:46.495Z,100384.78
2024-02-02T03:41:14.016Z,100390.84
2024-02-02T03:43:40.668Z,100393.47
2024-02-02T03:46:07.773Z,100388.78
2024-02-02T03:48:34.452Z,100399.81
2024-02-02T03:51:02.350Z,100403.38
2024-02-02T03:53:29.120Z,100402.81
2024-02-02T03:55:55.695Z,100405.44
2024-02-02T03:58:22.664Z,100399.38
2024-02-02T04:00:49.467Z,100392.50
2024-02-02T04:03:16.756Z,100390.44
2024-02-02T04:05:43.671Z,100380.38
2024-02-02T04:08:11.348Z,100385.63
2024-02-02T04:10:39.769Z,100392.78
2024-02-02T04:13:06.359Z,100392.09
2024-02-02T04:15:33.683Z,100397.97
2024-02-02T04:18:01.086Z,100402.66
2024-02-02T04:20:27.962Z,100398.38
2024-02-02T04:22:54.595Z,100401.44
2024-02-02T04:25:21.100Z,100408.44
2024-02-02T04:27:47.721Z,100405.72
2024-02-02T04:30:14.698Z,100405.69
2024-02-02T04:32:41.947Z,100407.06
2024-02-02T04:35:08.552Z,100405.81
2024-02-02T04:37:35.200Z,100408.84
2024-02-02T04:40:02.158Z,100406.50
2024-02-02T04:42:29.302Z,100406.50
2024-02-02T04:44:56.057Z,100399.34
2024-02-02T04:47:23.897Z,100416.97
2024-02-02T04:49:50.672Z,100410.94
2024-02-02T04:52:17.322Z,100414.25
2024-02-02T04:54:44.184Z,100414.91
2024-02-02T04:57:11.197Z,100403.50
2024-02-02T04:59:38.918Z,100409.81
2024-02-02T05:02:06.657Z,100411.47
2024-02-02T05:04:34.133Z,100404.72
2024-02-02T05:07:01.045Z,100413.38
2024-02-02T05:09:28.401Z,100419.34
2024-02-02T05:11:55.500Z,100420.69
2024-02-02T05:14:22.183Z,100422.91
2024-02-02T05:16:48.786Z,100427.41
2024-02-02T05:19:15.860Z,100432.94
2024-02-02T05:21:42.707Z,100431.16
2024-02-02T05:24:22.042Z,100429.09
2024-02-02T05:26:56.585Z,100436.25
2024-02-02T05:29:23.304Z,100431.56
2024-02-02T05:31:49.920Z,100447.66
2024-02-02T05:34:16.818Z,100442.84
2024-02-02T05:36:43.984Z,100440.22
2024-02-02T05:39:11.005Z,100450.56
2024-02-02T05:41:37.886Z,100460.91
2024-02-02T05:44:04.790Z,100462.41
2024-02-02T05:46:31.389Z,100473.41
2024-02-02T05:48:58.175Z,100424.69
2024-02-02T05:51:24.947Z,100467.19
2024-02-02T05:53:52.692Z,100472.28
2024-02-02T05:56:19.848Z,100475.44
2024-02-02T05:58:46.730Z,100469.25
2024-02-02T06:01:13.539Z,100459.47
2024-02-02T06:03:40.458Z,100467.72
2024-02-02T06:06:07.721Z,100472.00
2024-02-02T06:08:34.469Z,100467.34
2024-02-02T06:11:01.060Z,100468.03
2024-02-02T06:13:27.874Z,100463.06
2024-02-02T06:15:56.036Z,100470.22
2024-02-02T06:18:23.133Z,100463.44
2024-02-02T06:20:49.908Z,100470.31
2024-02-02T06:23:16.790Z,100470.16
2024-02-02T06:25:43.901Z,100461.50
2024-02-02T06:28:11.269Z,100465.19
2024-02-02T06:30:38.342Z,100463.69
2024-02-02T06:33:05.119Z,100458.97
2024-02-02T06:35:32.022Z,100467.78
2024-02-02T06:38:01.502Z,100465.91
2024-02-02T06:40:28.602Z,100479.53
2024-02-02T06:42:56.389Z,100484.94
2024-02-02T06:45:23.855Z,100489.03
2024-02-02T06:47:53.594Z,100487.94
2024-02-02T06:50:20.333Z,100485.19
2024-02-02T06:52:47.323Z,100483.41
2024-02-02T06:55:15.506Z,100486.47
2024-02-02T06:57:43.338Z,100480.81
2024-02-02T07:00:13.218Z,100496.69
2024-02-02T07:02:40.272Z,100491.59
2024-02-02T07:05:07.887Z,100497.78
2024-02-02T07:07:34.969Z,100506.63
2024-02-02T07:10:02.502Z,100511.97
2024-02-02T07:12:35.903Z,100520.22
2024-02-02T07:15:05.617Z,100514.44
2024-02-02T07:17:37.897Z,100519.41
2024-02-02T07:20:10.331Z,100516.78
2024-02-02T07:22:39.175Z,100514.88
2024-02-02T07:25:07.869Z,100516.25
2024-02-02T07:28:05.636Z,100507.22
2024-02-02T07:30:32.608Z,100501.56
2024-02-02T07:33:01.364Z,100511.00
2024-02-02T07:35:33.138Z,100505.16
2024-02-02T07:38:07.544Z,100514.41
2024-02-02T07:41:06.508Z,100518.09
2024-02-02T07:43:34.653Z,100514.19
2024-02-02T07:46:02.816Z,100527.75
2024-02-02T07:48:31.078Z,100515.03
2024-02-02T07:50:57.990Z,100501.75
2024-02-02T07:53:24.721Z,100499.06
2024-02-02T07:55:51.979Z,100484.03
2024-02-02T07:58:19.411Z,100478.06
2024-02-02T08:00:46.232Z,100462.84
2024-02-02T08:03:13.867Z,100446.97
2024-02-02T08:05:43.227Z,100444.19
2024-02-02T08:08:11.096Z,100457.09
2024-02-02T08:10:43.212Z,100457.94
2024-02-02T08:13:15.382Z,100461.84
2024-02-02T08:15:42.446Z,100455.69
2024-02-02T08:18:10.337Z,100456.81
2024-02-02T08:20:37.921Z,100455.75
2024-02-02T08:23:06.175Z,100464.88
2024-02-02T08:25:32.920Z,100465.78
2024-02-02T08:28:02.221Z,100479.59
2024-02-02T08:30:29.546Z,100473.59
2024-02-02T08:32:56.410Z,100463.28
2024-02-02T08:35:25.109Z,100457.16
2024-02-02T08:38:02.043Z,100461.94
2024-02-02T08:40:45.038Z,100452.09
2024-02-02T08:43:15.794Z,100467.53
2024-02-02T08:45:42.552Z,100462.56
2024-02-02T08:48:24.815Z,100459.22
2024-02-02T08:50:51.680Z,100457.47
2024-02-02T08:53:19.339Z,100466.53
2024-02-02T08:55:50.620Z,100475.56
2024-02-02T08:58:33.120Z,100464.69
2024-02-02T09:01:00.764Z,100459.97
2024-02-02T09:03:46.181Z,100453.34
2024-02-02T09:06:42.890Z,100449.53
2024-02-02T09:09:13.608Z,100448.88
2024-02-02T09:11:40.712Z,100456.00
2024-02-02T09:14:18.572Z,100454.03
2024-02-02T09:16:51.689Z,100465.63
2024-02-02T09:19:25.560Z,100465.16
2024-02-02T09:21:53.772Z,100473.25
2024-02-02T09:24:49.222Z,100483.47
2024-02-02T09:27:33.383Z,100490.94
2024-02-02T09:30:01.216Z,100489.75
2024-02-02T09:32:28.964Z,100485.81
2024-02-02T09:35:01.012Z,100487.81
2024-02-02T09:37:44.336Z,100483.88
2024-02-02T09:40:45.738Z,100488.16
2024-02-02T09:43:30.675Z,100490.13
2024-02-02T09:46:24.008Z,100490.78
2024-02-02T09:49:29.361Z,100487.66
2024-02-02T09:52:01.817Z,100496.84
2024-02-02T09:54:40.896Z,100497.69
2024-02-02T09:57:22.572Z,100494.06
2024-02-02T10:00:02.897Z,100476.94
2024-02-02T10:03:00.681Z,100472.50
2024-02-02T10:05:41.196Z,100474.47
2024-02-02T10:08:49.965Z,100482.53
2024-02-02T10:11:17.013Z,100489.72
2024-02-02T10:14:13.320Z,100493.47
2024-02-02T10:16:49.639Z,100494.41
2024-02-02T10:19:25.611Z,100499.19
2024-02-02T10:22:16.560Z,100490.94
2024-02-02T10:25:01.475Z,100480.25
2024-02-02T10:27:47.014Z,100477.59
2024-02-02T10:30:44.353Z,100473.31
2024-02-02T10:33:35.998Z,100476.91
2024-02-02T10:36:23.143Z,100460.72
2024-02-02T10:39:14.830Z,100468.75
2024-02-02T10:42:00.546Z,100454.69
2024-02-02T10:44:58.477Z,100445.03
2024-02-02T10:47:43.020Z,100431.28
2024-02-02T10:50:23.781Z,100443.88
2024-02-02T10:53:03.246Z,100441.97
2024-02-02T10:55:58.808Z,100442.88
2024-02-02T10:58:43.718Z,100426.38
2024-02-02T11:01:31.420Z,100414.66
2024-02-02T11:04:16.317Z,100409.97
2024-02-02T11:06:52.344Z,100408.50
2024-02-02T11:09:48.621Z,100403.84
2024-02-02T11:12:48.297Z,100390.06
2024-02-02T11:15:28.647Z,100376.78
2024-02-02T11:18:08.804Z,100375.50
2024-02-02T11:21:11.312Z,100368.59
2024-02-02T11:23:52.994Z,100374.00
2024-02-02T11:26:46.110Z,100379.34
2024-02-02T11:29:28.463Z,100379.59
2024-02-02T11:32:10.823Z,100376.34
2024-02-02T11:34:47.374Z,100380.88
2024-02-02T11:37:46.177Z,100370.22
2024-02-02T11:40:14.501Z,100356.47
2024-02-02T11:42:41.857Z,100356.28
2024-02-02T11:45:13.497Z,100366.16
2024-02-02T11:47:51.400Z,100358.81
2024-02-02T11:50:21.754Z,100343.88
2024-02-02T11:53:09.357Z,100359.84
2024-02-02T11:55:42.196Z,100343.50
2024-02-02T11:58:12.778Z,100338.28
2024-02-02T12:00:54.128Z,100344.81
2024-02-02T12:03:42.643Z,100340.41
2024-02-02T12:06:16.634Z,100325.53
2024-02-02T12:09:19.020Z,100327.00
2024-02-02T12:11:53.203Z,100322.94
2024-02-02T12:14:27.096Z,100316.38
2024-02-02T12:16:55.046Z,100324.53
2024-02-02T12:19:22.497Z,100316.72
2024-02-02T12:21:49.299Z,100312.75
2024-02-02T12:24:18.484Z,100309.44
2024-02-02T12:26:49.128Z,100313.13
2024-02-02T12:29:16.901Z,100311.09
2024-02-02T12:31:43.872Z,100293.03
2024-02-02T12:34:10.987Z,100293.97
2024-02-02T12:36:38.020Z,100290.19
2024-02-02T12:39:09.288Z,100289.59
2024-02-02T12:41:36.368Z,100279.97
2024-02-02T12:44:03.674Z,100287.75
2024-02-02T12:46:30.557Z,100282.41
2024-02-02T12:48:57.452Z,100273.66
2024-02-02T12:51:24.852Z,100273.22
2024-02-02T12:53:51.832Z,100288.56
2024-02-02T12:56:19.301Z,100280.38
2024-02-02T12:58:46.051Z,100274.84
2024-02-02T13:01:15.100Z,100268.28
2024-02-02T13:03:44.826Z,100264.59
2024-02-02T13:06:13.414Z,100267.47
2024-02-02T13:08:42.474Z,100258.28
2024-02-02T13:11:21.105Z,100268.88
2024-02-02T13:13:48.282Z,100266.47
2024-02-02T13:16:36.485Z,100276.47
2024-02-02T13:19:08.799Z,100272.19
2024-02-02T13:21:44.075Z,100260.88
2024-02-02T13:24:20.312Z,100265.22
2024-02-02T13:26:52.694Z,100266.69
2024-02-02T13:29:27.035Z,100267.09
2024-02-02T13:31:53.977Z,100263.72
2024-02-02T13:34:21.446Z,100268.09
2024-02-02T13:36:49.960Z,100261.38
2024-02-02T13:39:22.834Z,100265.25
2024-02-02T13:41:51.916Z,100264.03
2024-02-02T13:44:24.241Z,100266.06
2024-02-02T13:46:51.125Z,100249.31
2024-02-02T13:49:24.702Z,100243.31
2024-02-02T13:51:53.130Z,100215.31
2024-02-02T13:54:21.358Z,100231.31
2024-02-02T13:56:48.234Z,100223.53
2024-02-02T13:59:19.368Z,100223.84
2024-02-02T14:01:47.473Z,100215.94
2024-02-02T14:04:15.270Z,100215.91
2024-02-02T14:06:42.071Z,100220.13
2024-02-02T14:09:09.923Z,100212.81
2024-02-02T14:11:39.042Z,100206.69
2024-02-02T14:14:06.991Z,100212.81
2024-02-02T14:16:34.108Z,100207.94
2024-02-02T14:19:06.229Z,100192.69
2024-02-02T14:21:38.202Z,100203.56
2024-02-02T14:24:13.464Z,100200.47
2024-02-02T14:26:54.623Z,100207.31
2024-02-02T14:29:23.527Z,100195.75
2024-02-02T14:31:59.316Z,100188.63
2024-02-02T14:34:28.727Z,100192.69
2024-02-02T14:36:56.735Z,100184.94
2024-02-02T14:39:27.821Z,100182.00
2024-02-02T14:41:55.707Z,100177.25
2024-02-02T14:44:23.853Z,100184.16
2024-02-02T14:46:51.041Z,100178.66
2024-02-02T14:49:18.966Z,100175.44
2024-02-02T14:51:45.810Z,100166.44
2024-02-02T14:54:12.566Z,100178.94
2024-02-02T14:56:39.494Z,100185.28
2024-02-02T14:59:09.628Z,100182.84
2024-02-02T15:01:37.784Z,100183.00
2024-02-02T15:04:06.016Z,100185.84
2024-02-02T15:06:35.601Z,100195.91
2024-02-02T15:09:10.782Z,100207.25
2024-02-02T15:11:38.147Z,100191.16
2024-02-02T15:14:05.265Z,100191.28
2024-02-02T15:16:32.543Z,100188.06
2024-02-02T15:18:59.599Z,100182.06
2024-02-02T15:21:26.942Z,100176.28
2024-02-02T15:23:53.795Z,100185.19
2024-02-02T15:26:20.915Z,100177.56
2024-02-02T15:28:47.677Z,100191.66
2024-02-02T15:31:14.389Z,100193.91
2024-02-02T15:33:42.075Z,100191.50
2024-02-02T15:36:09.640Z,100177.00
2024-02-02T15:38:37.398Z,100192.81
2024-02-02T15:41:12.530Z,100183.84
2024-02-02T15:43:39.317Z,100180.88
2024-02-02T15:46:06.546Z,100201.72
2024-02-02T15:48:34.003Z,100198.31
2024-02-02T15:51:00.994Z,100198.06
2024-02-02T15:53:29.113Z,100195.91
2024-02-02T15:55:55.935Z,100209.56
2024-02-02T15:58:22.724Z,100196.25
2024-02-02T16:00:49.752Z,100209.94
2024-02-02T16:03:17.379Z,100227.75
2024-02-02T16:05:45.014Z,100222.88
2024-02-02T16:08:13.272Z,100221.69
2024-02-02T16:10:39.999Z,100220.13
2024-02-02T16:13:06.490Z,100211.47
2024-02-02T16:15:33.481Z,100202.06
2024-02-02T16:18:00.659Z,100197.06
2024-02-02T16:20:27.398Z,100203.22
2024-02-02T16:22:53.937Z,100190.13
2024-02-02T16:25:20.592Z,100186.06
2024-02-02T16:27:47.542Z,100196.56
2024-02-02T16:30:15.595Z,100190.44
2024-02-02T16:32:42.277Z,100198.06
2024-02-02T16:35:09.628Z,100193.94
2024-02-02T16:37:40.838Z,100184.03
2024-02-02T16:40:09.150Z,100183.13
2024-02-02T16:42:37.882Z,100185.81
2024-02-02T16:45:05.219Z,100186.63
2024-02-02T16:47:32.122Z,100184.44
2024-02-02T16:49:59.182Z,100181.47
2024-02-02T16:52:26.092Z,100180.63
2024-02-02T16:54:53.085Z,100180.78
2024-02-02T16:57:19.826Z,100171.09
2024-02-02T16:59:46.775Z,100175.09
2024-02-02T17:02:13.502Z,100167.59
2024-02-02T17:04:43.297Z,100185.81
2024-02-02T17:07:10.466Z,100175.69
2024-02-02T17:09:40.168Z,100186.31
2024-02-02T17:12:10.499Z,100189.09
2024-02-02T17:14:39.868Z,100187.13
2024-02-02T17:17:07.292Z,100198.59
2024-02-02T17:19:34.076Z,100189.84
2024-02-02T17:22:00.885Z,100189.94
2024-02-02T17:24:27.799Z,100199.00
2024-02-02T17:26:54.961Z,100195.19
2024-02-02T17:29:21.815Z,100206.22
2024-02-02T17:31:48.587Z,100204.75
2024-02-02T17:34:17.009Z,100202.50
2024-02-02T17:36:44.125Z,100199.13
2024-02-02T17:39:10.936Z,100197.47
2024-02-02T17:41:37.585Z,100208.44
2024-02-02T17:44:04.658Z,100196.09
2024-02-02T17:46:31.319Z,100209.94
2024-02-02T17:48:58.457Z,100207.69
2024-02-02T17:51:25.425Z,100202.59
2024-02-02T17:53:52.648Z,100199.91
2024-02-02T17:56:19.147Z,100204.59
2024-02-02T17:58:48.219Z,100207.91
2024-02-02T18:01:16.793Z,100206.94
2024-02-02T18:03:44.165Z,100216.22
2024-02-02T18:06:11.192Z,100208.22
2024-02-02T18:08:38.252Z,100194.66
2024-02-02T18:11:07.450Z,100201.13
2024-02-02T18:13:34.301Z,100198.75
2024-02-02T18:16:01.037Z,100199.03
2024-02-02T18:18:27.760Z,100198.56
2024-02-02T18:20:54.647Z,100189.09
2024-02-02T18:23:21.597Z,100192.97
2024-02-02T18:25:48.209Z,100186.47
2024-02-02T18:28:16.520Z,100187.88
2024-02-02T18:30:43.906Z,100195.38
2024-02-02T18:33:11.741Z,100185.97
2024-02-02T18:35:38.652Z,100195.47
2024-02-02T18:38:06.061Z,100204.78
2024-02-02T18:40:32.892Z,100193.25
2024-02-02T18:42:59.851Z,100202.00
2024-02-02T18:45:26.969Z,100201.41
2024-02-02T18:47:54.033Z,100197.59
2024-02-02T18:50:20.762Z,100208.22
2024-02-02T18:52:48.781Z,100187.84
2024-02-02T18:55:15.769Z,100183.84
2024-02-02T18:57:42.560Z,100191.06
2024-02-02T19:00:10.609Z,100187.56
2024-02-02T19:02:37.649Z,100200.56
2024-02-02T19:05:04.992Z,100202.94
2024-02-02T19:07:34.270Z,100191.53
2024-02-02T19:10:01.333Z,100194.84
2024-02-02T19:12:30.661Z,100186.88
2024-02-02T19:14:59.812Z,100185.59
2024-02-02T19:17:26.932Z,100189.13
2024-02-02T19:19:53.847Z,100184.72
2024-02-02T19:22:20.555Z,100186.31
2024-02-02T19:24:47.694Z,100184.38
2024-02-02T19:27:14.551Z,100178.63
2024-02-02T19:29:41.227Z,100176.88
2024-02-02T19:32:08.411Z,100183.38
2024-02-02T19:34:35.703Z,100181.38
2024-02-02T19:37:02.693Z,100168.72
2024-02-02T19:39:29.639Z,100160.81
2024-02-02T19:41:56.469Z,100177.31
2024-02-02T19:44:23.321Z,100171.63
2024-02-02T19:46:51.468Z,100173.00
2024-02-02T19:49:18.244Z,100183.84
2024-02-02T19:51:45.252Z,100175.66
2024-02-02T19:54:12.277Z,100164.19
2024-02-02T19:56:39.155Z,100166.06
2024-02-02T19:59:05.806Z,100166.09
2024-02-02T20:01:33.400Z,100170.31
2024-02-02T20:04:00.382Z,100163.69
2024-02-02T20:06:27.105Z,100170.69
2024-02-02T20:08:53.964Z,100171.84
2024-02-02T20:11:22.238Z,100173.75
2024-02-02T20:13:49.861Z,100168.66
2024-02-02T20:16:18.584Z,100175.63
2024-02-02T20:18:45.800Z,100166.66
2024-02-02T20:21:14.938Z,100177.00
2024-02-02T20:23:42.349Z,100175.50
2024-02-02T20:26:09.635Z,100173.78
2024-02-02T20:28:36.741Z,100180.41
2024-02-02T20:31:04.492Z,100177.59
2024-02-02T20:33:31.450Z,100172.34
2024-02-02T20:35:58.176Z,100173.09
2024-02-02T20:38:24.857Z,100166.03
2024-02-02T20:40:51.680Z,100166.81
2024-02-02T20:43:18.409Z,100165.44
2024-02-02T20:45:45.485Z,100166.34
2024-02-02T20:48:12.658Z,100158.25
2024-02-02T20:50:39.543Z,100157.31
2024-02-02T20:53:06.292Z,100163.91
2024-02-02T20:55:33.225Z,100160.47
2024-02-02T20:58:02.662Z,100176.56
2024-02-02T21:00:30.989Z,100161.63
2024-02-02T21:02:57.866Z,100172.50
2024-02-02T21:05:25.641Z,100171.91
2024-02-02T21:07:53.449Z,100173.00
2024-02-02T21:10:20.671Z,100163.81
2024-02-02T21:12:47.844Z,100159.34
2024-02-02T21:15:17.478Z,100162.34
2024-02-02T21:17:48.502Z,100157.03
2024-02-02T21:20:15.450Z,100162.75
2024-02-02T21:22:42.273Z,100162.63
2024-02-02T21:25:10.424Z,100169.38
2024-02-02T21:27:37.233Z,100169.25
2024-02-02T21:30:04.911Z,100158.66
2024-02-02T21:32:31.863Z,100169.59
2024-02-02T21:34:58.837Z,100169.63
2024-02-02T21:37:25.361Z,100156.69
2024-02-02T21:39:51.928Z,100162.50
2024-02-02T21:42:18.601Z,100159.91
2024-02-02T21:44:45.477Z,100157.84
2024-02-02T21:47:12.533Z,100156.94
2024-02-02T21:49:42.511Z,100145.06
2024-02-02T21:52:10.861Z,100153.97
2024-02-02T21:54:37.497Z,100160.03
2024-02-02T21:57:04.572Z,100148.06
2024-02-02T21:59:31.137Z,100152.00
2024-02-02T22:01:57.970Z,100149.22
2024-02-02T22:04:24.424Z,100146.44
2024-02-02T22:06:53.128Z,100152.88
2024-02-02T22:09:20.020Z,100153.22
2024-02-02T22:11:46.801Z,100151.75
2024-02-02T22:14:13.309Z,100164.41
2024-02-02T22:16:39.849Z,100154.88
2024-02-02T22:19:06.439Z,100162.44
2024-02-02T22:21:33.618Z,100175.91
2024-02-02T22:24:00.752Z,100169.16
2024-02-02T22:26:27.242Z,100159.63
2024-02-02T22:28:54.254Z,100164.75
2024-02-02T22:31:22.215Z,100164.56
2024-02-02T22:33:50.457Z,100158.47
2024-02-02T22:36:22.113Z,100161.25
2024-02-02T22:38:51.137Z,100160.81
2024-02-02T22:41:32.980Z,100148.31
2024-02-02T22:44:01.484Z,100158.94
2024-02-02T22:46:31.196Z,100157.75
2024-02-02T22:48:58.289Z,100157.72
2024-02-02T22:51:24.992Z,100150.84
2024-02-02T22:53:51.831Z,100154.41
2024-02-02T22:56:18.461Z,100155.75
2024-02-02T22:58:45.097Z,100148.47
2024-02-02T23:01:12.472Z,100145.09
2024-02-02T23:03:39.275Z,100155.44
2024-02-02T23:06:06.333Z,100144.97
2024-02-02T23:08:33.515Z,100151.25
2024-02-02T23:11:00.254Z,100149.94
2024-02-02T23:13:27.030Z,100149.84
2024-02-02T23:15:55.006Z,100160.75
2024-02-02T23:18:22.799Z,100157.84
2024-02-02T23:20:50.035Z,100166.00
2024-02-02T23:23:20.231Z,100169.09
2024-02-02T23:25:46.858Z,100171.19
2024-02-02T23:28:13.762Z,100176.56
2024-02-02T23:30:40.519Z,100163.09
2024-02-02T23:33:07.553Z,100173.72
2024-02-02T23:35:34.261Z,100170.44
2024-02-02T23:38:00.803Z,100161.91
2024-02-02T23:40:27.699Z,100160.56
2024-02-02T23:42:54.638Z,100146.56
2024-02-02T23:45:21.621Z,100153.38
2024-02-02T23:47:48.374Z,100163.47
2024-02-02T23:50:15.539Z,100159.91
2024-02-02T23:52:42.288Z,100150.56
2024-02-02T23:55:10.627Z,100157.97
2024-02-02T23:57:38.117Z,100163.75
